Athlone, Ireland
Current Conditions -  °F | °C
As of 5:30 AM on Tuesday 21 Oct 2014 (Local Time) from EIKN Reporting Station
Rain Showers Rain Showers  
Wind Chill: 33°   Ceiling: 1800
Heat Index: 43°   Visibility: 3mi
Dew Point: 39°   Wind: 26mph
Humidity: 87%   Direction: 310°NW
Pressure: 29.62"   Gusts: NA
Location:  53.42°N, 7.95°W
Report Text: EIKN 210530Z 31023KT 5000 -SHRA BKN018CB BKN035 06/04 Q1003 NOSIG
Loading
Personal Weather Stations






























Interactive Weather Map
Tropical Storm Tracking
New forecast layout! Learn more

10-Day Weather Forecast

Advertisements
Track Severe Weather on mobile